createdAt,value
2019-02-27T00:01:10.318Z,0.50
2019-02-27T00:03:17.203Z,0.40
2019-02-27T00:05:24.635Z,0.40
2019-02-27T00:07:32.041Z,0.30
2019-02-27T00:09:39.317Z,0.50
2019-02-27T00:11:46.849Z,0.57
2019-02-27T00:13:57.635Z,0.53
2019-02-27T00:16:03.677Z,0.70
2019-02-27T00:18:11.509Z,0.50
2019-02-27T00:20:20.257Z,0.40
2019-02-27T00:22:27.773Z,0.37
2019-02-27T00:24:34.975Z,0.30
2019-02-27T00:26:42.469Z,0.30
2019-02-27T00:28:49.861Z,0.47
2019-02-27T00:30:56.603Z,0.40
2019-02-27T00:33:03.528Z,0.70
2019-02-27T00:35:10.261Z,0.63
2019-02-27T00:37:19.012Z,0.53
2019-02-27T00:39:26.313Z,0.30
2019-02-27T00:41:33.080Z,0.97
2019-02-27T00:43:39.828Z,0.53
2019-02-27T00:45:46.586Z,0.40
2019-02-27T00:47:53.842Z,0.53
2019-02-27T00:50:05.774Z,0.50
2019-02-27T00:52:09.463Z,0.53
2019-02-27T00:54:16.255Z,0.90
2019-02-27T00:56:23.038Z,0.77
2019-02-27T00:58:30.355Z,0.80
2019-02-27T01:00:39.342Z,1.20
2019-02-27T01:02:45.556Z,1.73
2019-02-27T01:04:52.790Z,1.57
2019-02-27T01:06:59.558Z,1.00
2019-02-27T01:09:07.418Z,1.70
2019-02-27T01:11:18.196Z,1.60
2019-02-27T01:13:22.981Z,1.50
2019-02-27T01:15:30.822Z,1.50
2019-02-27T01:17:38.248Z,1.53
2019-02-27T01:19:45.015Z,1.33
2019-02-27T01:21:52.293Z,1.63
2019-02-27T01:24:00.617Z,1.53
2019-02-27T01:26:07.334Z,1.63
2019-02-27T01:28:14.641Z,1.53
2019-02-27T01:30:23.889Z,1.40
2019-02-27T01:32:31.136Z,1.20
2019-02-27T01:34:38.453Z,1.37
2019-02-27T01:36:45.239Z,1.80
2019-02-27T01:38:51.989Z,1.50
2019-02-27T01:40:59.663Z,1.70
2019-02-27T01:43:06.611Z,1.70
2019-02-27T01:45:20.592Z,1.50
2019-02-27T01:47:25.590Z,1.70
2019-02-27T01:49:32.378Z,1.87
2019-02-27T01:51:39.653Z,1.40
2019-02-27T01:53:46.401Z,1.37
2019-02-27T01:55:56.234Z,1.50
2019-02-27T01:58:02.630Z,1.70
2019-02-27T02:00:09.568Z,1.50
2019-02-27T02:02:16.795Z,1.87
2019-02-27T02:04:23.529Z,1.60
2019-02-27T02:06:32.501Z,1.37
2019-02-27T02:08:39.830Z,1.23
2019-02-27T02:10:46.597Z,1.30
2019-02-27T02:12:56.791Z,1.50
2019-02-27T02:15:36.433Z,1.60
2019-02-27T02:18:17.260Z,1.40
2019-02-27T02:20:47.792Z,1.10
2019-02-27T02:23:16.050Z,1.20
2019-02-27T02:26:18.168Z,1.10
2019-02-27T02:29:12.401Z,0.97
2019-02-27T02:31:46.049Z,1.00
2019-02-27T02:34:27.341Z,1.00
2019-02-27T02:37:12.661Z,0.90
2019-02-27T02:39:44.555Z,0.90
2019-02-27T02:42:07.429Z,1.00
2019-02-27T02:44:25.115Z,1.00
2019-02-27T02:47:05.370Z,1.10
2019-02-27T02:49:42.077Z,1.00
2019-02-27T02:52:40.760Z,1.10
2019-02-27T02:55:15.051Z,1.20
2019-02-27T02:58:12.227Z,0.87
2019-02-27T03:00:57.631Z,1.20
2019-02-27T03:03:35.978Z,1.00
2019-02-27T03:06:15.072Z,1.20
2019-02-27T03:08:56.347Z,0.90
2019-02-27T03:11:45.200Z,0.90
2019-02-27T03:14:26.679Z,1.10
2019-02-27T03:17:17.891Z,0.80
2019-02-27T03:19:41.661Z,0.97
2019-02-27T03:22:05.605Z,1.00
2019-02-27T03:25:04.215Z,1.00
2019-02-27T03:27:45.244Z,0.80
2019-02-27T03:30:00.715Z,0.60
2019-02-27T03:32:18.698Z,0.60
2019-02-27T03:35:15.284Z,0.70
2019-02-27T03:37:48.569Z,1.00
2019-02-27T03:40:24.167Z,0.90
2019-02-27T03:42:51.901Z,0.90
2019-02-27T03:45:24.175Z,0.90
2019-02-27T03:47:40.463Z,0.70
2019-02-27T03:50:39.250Z,1.00
2019-02-27T03:53:10.859Z,0.90
2019-02-27T03:56:22.128Z,0.50
2019-02-27T03:58:55.734Z,0.60
2019-02-27T04:01:47.982Z,0.60
2019-02-27T04:04:13.991Z,0.70
2019-02-27T04:06:41.578Z,0.60
2019-02-27T04:09:04.353Z,0.60
2019-02-27T04:11:13.913Z,0.50
2019-02-27T04:13:26.466Z,0.50
2019-02-27T04:15:30.408Z,1.00
2019-02-27T04:17:34.026Z,0.70
2019-02-27T04:19:41.866Z,0.70
2019-02-27T04:21:48.923Z,0.80
2019-02-27T04:23:56.905Z,0.53
2019-02-27T04:26:05.746Z,0.60
2019-02-27T04:28:13.221Z,0.67
2019-02-27T04:30:20.553Z,0.40
2019-02-27T04:32:28.593Z,0.93
2019-02-27T04:34:36.787Z,0.50
2019-02-27T04:36:47.007Z,0.50
2019-02-27T04:38:53.185Z,0.50
2019-02-27T04:41:01.724Z,0.67
2019-02-27T04:43:10.138Z,0.50
2019-02-27T04:45:16.863Z,0.60
2019-02-27T04:47:28.833Z,0.50
2019-02-27T04:49:34.772Z,0.50
2019-02-27T04:51:43.097Z,0.60
2019-02-27T04:53:50.253Z,0.50
2019-02-27T04:55:57.020Z,0.43
2019-02-27T04:58:08.646Z,0.53
2019-02-27T05:00:14.459Z,0.50
2019-02-27T05:02:22.444Z,0.60
2019-02-27T05:04:34.951Z,0.50
2019-02-27T05:06:39.223Z,0.50
2019-02-27T05:08:46.629Z,0.70
2019-02-27T05:10:53.921Z,0.43
2019-02-27T05:13:01.326Z,0.50
2019-02-27T05:15:08.860Z,0.60
2019-02-27T05:17:21.166Z,0.60
2019-02-27T05:19:25.201Z,0.50
2019-02-27T05:21:31.998Z,0.50
2019-02-27T05:23:39.630Z,0.43
2019-02-27T05:25:47.512Z,0.60
2019-02-27T05:27:55.586Z,0.50
2019-02-27T05:30:02.454Z,0.50
2019-02-27T05:32:09.697Z,0.50
2019-02-27T05:34:16.592Z,0.47
2019-02-27T05:36:23.332Z,0.57
2019-02-27T05:38:30.678Z,0.50
2019-02-27T05:40:38.675Z,0.50
2019-02-27T05:42:45.573Z,0.40
2019-02-27T05:44:55.689Z,0.53
2019-02-27T05:47:02.734Z,0.50
2019-02-27T05:49:09.915Z,0.47
2019-02-27T05:51:16.674Z,0.43
2019-02-27T05:53:24.086Z,0.43
2019-02-27T05:55:31.363Z,0.50
2019-02-27T05:57:38.131Z,0.37
2019-02-27T05:59:45.431Z,0.60
2019-02-27T06:01:52.748Z,0.40
2019-02-27T06:03:59.980Z,0.40
2019-02-27T06:06:06.901Z,0.33
2019-02-27T06:08:15.404Z,0.50
2019-02-27T06:10:23.602Z,0.40
2019-02-27T06:12:30.495Z,0.50
2019-02-27T06:14:37.793Z,0.43
2019-02-27T06:16:45.012Z,0.50
2019-02-27T06:18:56.049Z,0.50
2019-02-27T06:21:01.370Z,0.60
2019-02-27T06:23:08.484Z,0.70
2019-02-27T06:25:21.962Z,0.50
2019-02-27T06:27:25.883Z,0.40
2019-02-27T06:29:33.090Z,0.57
2019-02-27T06:31:39.861Z,0.50
2019-02-27T06:33:47.151Z,0.40
2019-02-27T06:35:55.130Z,0.47
2019-02-27T06:38:01.919Z,0.43
2019-02-27T06:40:09.411Z,0.50
2019-02-27T06:42:16.725Z,0.60
2019-02-27T06:44:23.424Z,0.40
2019-02-27T06:46:30.161Z,0.53
2019-02-27T06:48:36.864Z,0.60
2019-02-27T06:50:44.078Z,0.40
2019-02-27T06:52:50.825Z,0.50
2019-02-27T06:54:57.596Z,0.37
2019-02-27T06:57:07.489Z,0.40
2019-02-27T06:59:14.027Z,0.50
2019-02-27T07:01:21.097Z,0.50
2019-02-27T07:03:29.523Z,0.43
2019-02-27T07:05:36.300Z,0.40
2019-02-27T07:07:44.389Z,0.60
2019-02-27T07:09:51.499Z,0.40
2019-02-27T07:11:59.234Z,0.50
2019-02-27T07:14:06.856Z,0.40
2019-02-27T07:16:14.188Z,0.40
2019-02-27T07:18:23.957Z,0.50
2019-02-27T07:20:30.662Z,0.37
2019-02-27T07:22:37.435Z,0.50
2019-02-27T07:24:44.558Z,0.40
2019-02-27T07:26:51.854Z,0.53
2019-02-27T07:28:58.978Z,0.50
2019-02-27T07:31:05.733Z,0.50
2019-02-27T07:33:13.093Z,0.40
2019-02-27T07:35:20.287Z,1.07
2019-02-27T07:37:27.035Z,0.60
2019-02-27T07:39:34.847Z,0.60
2019-02-27T07:41:42.061Z,0.50
2019-02-27T07:43:48.803Z,0.50
2019-02-27T07:45:56.627Z,0.43
2019-02-27T07:48:03.818Z,0.50
2019-02-27T07:50:12.953Z,0.67
2019-02-27T07:52:20.826Z,0.50
2019-02-27T07:54:29.002Z,0.53
2019-02-27T07:56:37.427Z,0.50
2019-02-27T07:58:44.195Z,0.47
2019-02-27T08:00:50.981Z,0.60
2019-02-27T08:02:58.566Z,0.50
2019-02-27T08:05:06.909Z,0.50
2019-02-27T08:07:13.653Z,0.70
2019-02-27T08:09:20.397Z,0.70
2019-02-27T08:11:27.770Z,0.50
2019-02-27T08:13:34.475Z,0.50
2019-02-27T08:15:41.438Z,0.53
2019-02-27T08:17:48.766Z,0.60
2019-02-27T08:19:55.483Z,0.60
2019-02-27T08:22:02.754Z,0.40
2019-02-27T08:24:09.539Z,0.80
2019-02-27T08:26:18.278Z,0.57
2019-02-27T08:28:24.706Z,0.53
2019-02-27T08:30:31.522Z,0.60
2019-02-27T08:32:38.585Z,0.40
2019-02-27T08:34:46.214Z,0.50
2019-02-27T08:36:53.354Z,0.50
2019-02-27T08:39:00.022Z,0.40
2019-02-27T08:41:06.721Z,0.60
2019-02-27T08:43:14.026Z,0.50
2019-02-27T08:45:20.928Z,0.50
2019-02-27T08:47:28.086Z,0.50
2019-02-27T08:49:34.916Z,0.50
2019-02-27T08:51:42.731Z,0.40
2019-02-27T08:53:49.401Z,0.50
2019-02-27T08:55:56.539Z,0.53
2019-02-27T08:58:03.274Z,0.50
2019-02-27T09:00:14.439Z,0.50
2019-02-27T09:02:24.149Z,0.50
2019-02-27T09:04:30.371Z,0.47
2019-02-27T09:06:37.562Z,0.43
2019-02-27T09:08:45.036Z,0.40
2019-02-27T09:10:52.300Z,0.47
2019-02-27T09:13:05.359Z,0.40
2019-02-27T09:15:08.242Z,0.40
2019-02-27T09:17:16.559Z,0.50
2019-02-27T09:19:23.325Z,0.37
2019-02-27T09:21:30.660Z,0.40
2019-02-27T09:23:38.189Z,0.80
2019-02-27T09:25:45.526Z,0.40
2019-02-27T09:27:52.954Z,0.40
2019-02-27T09:29:59.661Z,0.40
2019-02-27T09:32:09.282Z,0.30
2019-02-27T09:34:16.298Z,0.40
2019-02-27T09:36:23.487Z,0.40
2019-02-27T09:38:30.806Z,0.50
2019-02-27T09:40:38.913Z,0.40
2019-02-27T09:42:46.116Z,0.40
2019-02-27T09:44:54.420Z,0.40
2019-02-27T09:47:01.159Z,0.50
2019-02-27T09:49:08.238Z,0.50
2019-02-27T09:51:15.899Z,0.30
2019-02-27T09:53:22.663Z,0.40
2019-02-27T09:55:29.375Z,0.40
2019-02-27T09:57:36.773Z,0.43
2019-02-27T09:59:44.873Z,0.50
2019-02-27T10:01:51.781Z,0.43
2019-02-27T10:03:58.557Z,0.50
2019-02-27T10:06:08.720Z,0.60
2019-02-27T10:08:14.899Z,0.40
2019-02-27T10:10:21.987Z,0.33
2019-02-27T10:12:28.894Z,0.40
2019-02-27T10:14:35.953Z,0.40
2019-02-27T10:16:43.849Z,0.30
2019-02-27T10:18:54.684Z,0.50
2019-02-27T10:20:59.846Z,0.43
2019-02-27T10:23:06.811Z,0.50
2019-02-27T10:25:14.253Z,0.50
2019-02-27T10:27:20.997Z,0.40
2019-02-27T10:29:28.258Z,0.50
2019-02-27T10:31:35.068Z,0.50
2019-02-27T10:33:42.998Z,0.50
2019-02-27T10:35:50.830Z,0.40
2019-02-27T10:37:57.899Z,0.40
2019-02-27T10:40:04.799Z,0.50
2019-02-27T10:42:11.598Z,0.57
2019-02-27T10:44:18.354Z,0.53
2019-02-27T10:46:25.497Z,0.53
2019-02-27T10:48:32.242Z,0.53
2019-02-27T10:50:39.025Z,0.43
2019-02-27T10:52:45.768Z,0.50
2019-02-27T10:54:52.490Z,0.33
2019-02-27T10:56:59.275Z,0.40
2019-02-27T10:59:06.061Z,0.50
2019-02-27T11:01:13.426Z,0.57
2019-02-27T11:03:23.656Z,0.50
2019-02-27T11:05:31.530Z,0.40
2019-02-27T11:07:39.092Z,0.43
2019-02-27T11:09:45.893Z,0.40
2019-02-27T11:11:53.937Z,0.60
2019-02-27T11:14:01.842Z,0.60
2019-02-27T11:16:09.693Z,0.33
2019-02-27T11:18:16.403Z,0.50
2019-02-27T11:20:24.676Z,0.50
2019-02-27T11:22:32.381Z,0.60
2019-02-27T11:24:39.631Z,0.70
2019-02-27T11:26:47.033Z,0.50
2019-02-27T11:28:54.331Z,0.40
2019-02-27T11:31:01.183Z,0.60
2019-02-27T11:33:08.321Z,0.50
2019-02-27T11:35:16.392Z,0.60
2019-02-27T11:37:23.130Z,0.50
2019-02-27T11:39:32.930Z,0.60
2019-02-27T11:41:39.811Z,0.50
2019-02-27T11:43:46.548Z,0.30
2019-02-27T11:45:57.815Z,0.40
2019-02-27T11:48:04.324Z,0.53
2019-02-27T11:50:14.703Z,0.50
2019-02-27T11:52:22.588Z,0.40
2019-02-27T11:54:29.350Z,0.40
2019-02-27T11:56:36.098Z,0.40
2019-02-27T11:58:43.933Z,0.40
2019-02-27T12:00:51.774Z,0.43
2019-02-27T12:02:58.976Z,0.43
2019-02-27T12:05:05.845Z,0.40
2019-02-27T12:07:17.209Z,0.50
2019-02-27T12:09:21.489Z,0.43
2019-02-27T12:11:28.617Z,0.33
2019-02-27T12:13:35.578Z,0.50
2019-02-27T12:15:44.183Z,0.50
2019-02-27T12:17:51.136Z,0.57
2019-02-27T12:19:58.084Z,0.60
2019-02-27T12:22:05.552Z,0.50
2019-02-27T12:24:13.458Z,0.47
2019-02-27T12:26:20.730Z,0.60
2019-02-27T12:28:28.032Z,0.60
2019-02-27T12:30:37.344Z,0.40
2019-02-27T12:32:44.471Z,0.43
2019-02-27T12:34:51.902Z,0.50
2019-02-27T12:36:58.652Z,0.50
2019-02-27T12:39:06.508Z,0.50
2019-02-27T12:41:14.459Z,0.40
2019-02-27T12:43:21.387Z,0.50
2019-02-27T12:45:29.691Z,0.53
2019-02-27T12:47:40.689Z,0.40
2019-02-27T12:49:47.126Z,0.50
2019-02-27T12:51:54.412Z,0.40
2019-02-27T12:54:01.187Z,0.60
2019-02-27T12:56:10.770Z,0.40
2019-02-27T12:58:18.120Z,0.40
2019-02-27T13:00:27.263Z,0.40
2019-02-27T13:02:35.802Z,0.40
2019-02-27T13:04:43.031Z,0.43
2019-02-27T13:06:49.781Z,0.40
2019-02-27T13:08:57.870Z,0.40
2019-02-27T13:11:05.317Z,0.40
2019-02-27T13:13:13.814Z,0.60
2019-02-27T13:15:21.965Z,0.50
2019-02-27T13:17:28.736Z,0.40
2019-02-27T13:19:38.502Z,0.50
2019-02-27T13:21:45.189Z,0.47
2019-02-27T13:23:52.014Z,0.50
2019-02-27T13:26:00.428Z,0.53
2019-02-27T13:28:07.888Z,0.40
2019-02-27T13:30:17.329Z,0.40
2019-02-27T13:32:26.555Z,0.50
2019-02-27T13:34:32.514Z,0.53
2019-02-27T13:36:40.001Z,0.50
2019-02-27T13:38:49.520Z,0.60
2019-02-27T13:40:55.764Z,0.60
2019-02-27T13:43:03.538Z,0.43
2019-02-27T13:45:13.471Z,0.50
2019-02-27T13:47:20.860Z,0.50
2019-02-27T13:49:28.439Z,0.60
2019-02-27T13:51:37.258Z,0.47
2019-02-27T13:53:44.872Z,0.60
2019-02-27T13:55:53.675Z,0.70
2019-02-27T13:58:03.740Z,0.47
2019-02-27T14:00:20.316Z,0.60
2019-02-27T14:02:25.865Z,0.40
2019-02-27T14:04:34.843Z,0.40
2019-02-27T14:06:43.497Z,0.40
2019-02-27T14:08:53.087Z,0.40
2019-02-27T14:11:02.803Z,0.57
2019-02-27T14:13:11.194Z,0.50
2019-02-27T14:15:19.631Z,0.60
2019-02-27T14:17:28.610Z,0.47
2019-02-27T14:19:38.860Z,0.63
2019-02-27T14:21:46.539Z,0.60
2019-02-27T14:23:54.960Z,0.60
2019-02-27T14:26:05.558Z,0.67
2019-02-27T14:28:12.072Z,0.50
2019-02-27T14:30:35.658Z,0.70
2019-02-27T14:32:47.350Z,0.60
2019-02-27T14:34:54.596Z,0.60
2019-02-27T14:37:01.900Z,0.60
2019-02-27T14:39:10.444Z,0.60
2019-02-27T14:41:17.769Z,0.70
2019-02-27T14:43:27.391Z,0.63
2019-02-27T14:45:34.111Z,0.83
2019-02-27T14:47:47.336Z,1.30
2019-02-27T18:00:44.271Z,0.90
2019-02-27T18:02:53.071Z,1.10
2019-02-27T18:05:00.976Z,0.90
2019-02-27T18:07:14.278Z,1.00
2019-02-27T18:09:29.542Z,0.83
2019-02-27T18:11:39.845Z,1.40
2019-02-27T18:14:03.085Z,0.90
2019-02-27T18:16:12.607Z,0.80
2019-02-27T18:18:58.852Z,0.90
2019-02-27T18:21:13.383Z,0.80
2019-02-27T18:23:31.516Z,0.80
2019-02-27T18:25:42.058Z,0.87
2019-02-27T18:27:58.659Z,1.10
2019-02-27T18:30:02.977Z,0.90
2019-02-27T18:32:13.480Z,1.10
2019-02-27T18:34:23.460Z,0.80
2019-02-27T18:37:04.274Z,0.90
2019-02-27T18:39:14.471Z,1.00
2019-02-27T18:41:31.036Z,0.80
2019-02-27T18:44:08.085Z,0.63
2019-02-27T18:46:15.636Z,0.93
2019-02-27T18:49:38.297Z,0.87
2019-02-27T18:53:15.546Z,0.90
2019-02-27T18:55:31.411Z,0.90
2019-02-27T18:57:47.784Z,0.90
2019-02-27T19:00:08.167Z,1.10
2019-02-27T19:02:27.227Z,1.00
2019-02-27T19:04:37.732Z,0.90
2019-02-27T19:06:47.012Z,1.20
2019-02-27T19:08:55.423Z,1.03
2019-02-27T19:11:03.046Z,0.70
2019-02-27T19:13:10.238Z,0.73
2019-02-27T19:15:19.539Z,0.83
2019-02-27T19:17:31.509Z,0.87
2019-02-27T19:19:48.180Z,0.80
2019-02-27T19:21:53.659Z,0.70
2019-02-27T19:24:00.981Z,0.70
2019-02-27T19:26:21.109Z,0.80
2019-02-27T19:28:31.070Z,0.97
2019-02-27T19:30:44.052Z,1.00
2019-02-27T19:32:51.641Z,0.80
2019-02-27T19:35:00.244Z,0.90
2019-02-27T19:37:10.151Z,1.57
2019-02-27T19:39:21.732Z,0.90
2019-02-27T19:41:38.722Z,1.30
2019-02-27T19:43:54.950Z,1.50
2019-02-27T19:46:01.004Z,1.30
2019-02-27T19:48:09.885Z,1.20
2019-02-27T19:50:18.346Z,1.30
2019-02-27T19:52:26.958Z,1.40
2019-02-27T19:54:41.593Z,1.53
2019-02-27T19:56:48.857Z,1.00
2019-02-27T19:58:59.354Z,1.40
2019-02-27T20:01:09.086Z,1.50
2019-02-27T20:03:16.788Z,1.60
2019-02-27T20:05:24.335Z,1.10
2019-02-27T20:07:32.941Z,0.97
2019-02-27T20:09:41.617Z,1.20
2019-02-27T20:11:49.352Z,1.10
2019-02-27T20:14:01.949Z,1.00
2019-02-27T20:16:06.903Z,1.10
2019-02-27T20:18:14.354Z,1.10
2019-02-27T20:20:22.884Z,1.10
2019-02-27T20:22:29.932Z,1.43
2019-02-27T20:24:38.444Z,0.90
2019-02-27T20:26:45.838Z,1.07
2019-02-27T20:28:53.882Z,0.83
2019-02-27T20:31:01.789Z,1.20
2019-02-27T20:33:09.684Z,0.97
2019-02-27T20:35:17.334Z,0.80
2019-02-27T20:37:27.063Z,1.13
2019-02-27T20:39:35.941Z,0.90
2019-02-27T20:41:44.093Z,1.00
2019-02-27T20:43:51.330Z,1.03
2019-02-27T20:45:58.693Z,0.90
2019-02-27T20:48:06.534Z,1.00
2019-02-27T20:50:21.838Z,1.00
2019-02-27T20:52:29.078Z,1.00
2019-02-27T20:54:37.719Z,1.43
2019-02-27T20:56:45.217Z,1.43
2019-02-27T20:58:54.302Z,0.90
2019-02-27T21:01:01.326Z,1.40
2019-02-27T21:03:08.993Z,1.20
2019-02-27T21:05:16.447Z,1.03
2019-02-27T21:07:26.101Z,0.87
2019-02-27T21:09:33.349Z,0.70
2019-02-27T21:11:41.086Z,0.77
2019-02-27T21:13:49.607Z,0.80
2019-02-27T21:15:57.170Z,0.70
2019-02-27T21:18:05.782Z,0.87
2019-02-27T21:20:14.313Z,0.60
2019-02-27T21:22:25.256Z,0.70
2019-02-27T21:24:31.694Z,0.70
2019-02-27T21:26:39.636Z,1.00
2019-02-27T21:28:57.744Z,0.80
2019-02-27T21:30:55.760Z,0.70
2019-02-27T21:33:02.993Z,0.73
2019-02-27T21:35:10.297Z,0.77
2019-02-27T21:37:18.578Z,0.70
2019-02-27T21:39:28.348Z,0.60
2019-02-27T21:41:35.680Z,0.77
2019-02-27T21:43:43.145Z,0.83
2019-02-27T21:45:51.199Z,0.60
2019-02-27T21:47:59.153Z,0.80
2019-02-27T21:50:07.263Z,0.70
2019-02-27T21:52:22.423Z,0.67
2019-02-27T21:54:29.502Z,0.70
2019-02-27T21:56:39.438Z,0.70
2019-02-27T21:58:46.735Z,1.00
2019-02-27T22:00:53.932Z,0.90
2019-02-27T22:03:05.008Z,0.83
2019-02-27T22:05:11.023Z,0.80
2019-02-27T22:07:18.434Z,0.90
2019-02-27T22:09:27.118Z,0.70
2019-02-27T22:11:34.872Z,0.90
2019-02-27T22:13:44.953Z,0.93
2019-02-27T22:15:55.772Z,0.70
2019-02-27T22:18:01.895Z,0.90
2019-02-27T22:20:09.734Z,3.63
2019-02-27T22:22:17.248Z,1.90
2019-02-27T22:24:25.128Z,1.07
2019-02-27T22:26:34.170Z,1.00
2019-02-27T22:28:42.048Z,0.90
2019-02-27T22:30:49.267Z,0.90
2019-02-27T22:32:58.033Z,0.80
2019-02-27T22:35:06.358Z,0.90
2019-02-27T22:37:17.482Z,0.60
2019-02-27T22:39:24.352Z,0.97
2019-02-27T22:41:31.435Z,1.30
2019-02-27T22:43:38.708Z,0.60
2019-02-27T22:45:47.148Z,0.87
2019-02-27T22:47:54.707Z,1.00
2019-02-27T22:50:05.866Z,0.80
2019-02-27T22:52:11.675Z,1.00
2019-02-27T22:54:19.341Z,0.93
2019-02-27T22:56:26.662Z,0.90
2019-02-27T22:58:33.883Z,0.90
2019-02-27T23:01:05.016Z,0.97
2019-02-27T23:03:12.399Z,1.00
2019-02-27T23:05:19.702Z,0.93
2019-02-27T23:07:27.338Z,0.80
2019-02-27T23:09:36.844Z,0.80
2019-02-27T23:11:43.757Z,0.90
2019-02-27T23:13:52.250Z,0.73
2019-02-27T23:15:59.449Z,0.83
2019-02-27T23:18:07.025Z,0.70
2019-02-27T23:20:17.547Z,0.60
2019-02-27T23:22:25.282Z,1.00
2019-02-27T23:24:33.503Z,0.53
2019-02-27T23:26:40.568Z,1.77
2019-02-27T23:28:49.679Z,0.50
2019-02-27T23:30:57.634Z,0.67
2019-02-27T23:33:05.781Z,0.60
2019-02-27T23:35:16.726Z,0.60
2019-02-27T23:37:23.328Z,0.90
2019-02-27T23:39:30.686Z,0.90
2019-02-27T23:41:38.036Z,1.37
2019-02-27T23:43:45.443Z,0.80
2019-02-27T23:45:54.745Z,0.60
2019-02-27T23:48:03.935Z,0.70
2019-02-27T23:50:11.925Z,0.77
2019-02-27T23:52:24.063Z,1.00
2019-02-27T23:54:35.413Z,0.90
2019-02-27T23:56:41.051Z,0.90
2019-02-27T23:58:48.597Z,0.90
